createdAt,value
2022-10-17T00:01:07.663Z,101404.96
2022-10-17T00:03:37.153Z,101401.64
2022-10-17T00:06:12.715Z,101403.65
2022-10-17T00:08:42.929Z,101410.08
2022-10-17T00:11:23.420Z,101426.00
2022-10-17T00:13:54.799Z,101434.34
2022-10-17T00:16:28.289Z,101433.67
2022-10-17T00:18:56.761Z,101429.73
2022-10-17T00:21:26.234Z,101417.81
2022-10-17T00:23:55.870Z,101417.82
2022-10-17T00:26:23.749Z,101425.95
2022-10-17T00:28:53.390Z,101422.39
2022-10-17T00:31:23.477Z,101416.67
2022-10-17T00:33:52.642Z,101426.30
2022-10-17T00:36:24.491Z,101431.27
2022-10-17T00:38:57.040Z,101424.89
2022-10-17T00:41:27.769Z,101420.55
2022-10-17T00:44:08.130Z,101422.59
2022-10-17T00:46:38.827Z,101417.73
2022-10-17T00:49:12.430Z,101420.16
2022-10-17T00:51:47.261Z,101421.11
2022-10-17T00:54:19.304Z,101417.90
2022-10-17T00:56:48.656Z,101415.20
2022-10-17T00:59:19.655Z,101412.95
2022-10-17T01:02:13.992Z,101406.94
2022-10-17T01:04:46.333Z,101410.86
2022-10-17T01:07:14.222Z,101419.11
2022-10-17T01:09:44.976Z,101415.73
2022-10-17T01:12:33.234Z,101420.04
2022-10-17T01:15:26.146Z,101422.05
2022-10-17T01:18:33.697Z,101447.50
2022-10-17T01:21:33.369Z,101443.66
2022-10-17T01:24:29.819Z,101446.38
2022-10-17T01:27:23.543Z,101450.27
2022-10-17T01:30:26.820Z,101455.85
2022-10-17T01:33:22.891Z,101459.51
2022-10-17T01:36:08.813Z,101458.11
2022-10-17T01:38:49.238Z,101454.77
2022-10-17T01:41:37.807Z,101447.18
2022-10-17T01:44:32.148Z,101440.41
2022-10-17T01:47:07.638Z,101436.47
2022-10-17T01:49:40.000Z,101429.82
2022-10-17T01:52:20.835Z,101423.80
2022-10-17T01:54:58.212Z,101407.20
2022-10-17T01:57:38.118Z,101409.27
2022-10-17T02:00:11.356Z,101410.11
2022-10-17T02:02:44.404Z,101422.81
2022-10-17T02:05:12.249Z,101424.08
2022-10-17T02:07:41.938Z,101428.98
2022-10-17T02:10:21.747Z,101439.55
2022-10-17T02:13:10.753Z,101447.10
2022-10-17T02:16:12.622Z,101439.05
2022-10-17T02:18:57.294Z,101438.14
2022-10-17T02:22:16.181Z,101443.66
2022-10-17T02:25:23.658Z,101438.05
2022-10-17T02:28:07.657Z,101438.66
2022-10-17T02:30:48.604Z,101444.77
2022-10-17T02:33:49.479Z,101446.00
2022-10-17T02:36:28.252Z,101447.39
2022-10-17T02:38:58.711Z,101439.88
2022-10-17T02:44:02.660Z,101442.38
2022-10-17T02:46:32.524Z,101444.50
2022-10-17T02:49:16.713Z,101447.48
2022-10-17T02:51:58.775Z,101455.90
2022-10-17T02:55:31.951Z,101461.11
2022-10-17T02:58:06.624Z,101456.15
2022-10-17T03:00:41.676Z,101454.03
2022-10-17T03:03:27.223Z,101457.11
2022-10-17T03:05:55.830Z,101464.17
2022-10-17T03:08:25.278Z,101465.08
2022-10-17T03:10:53.031Z,101462.99
2022-10-17T03:13:22.410Z,101466.98
2022-10-17T03:15:50.870Z,101455.55
2022-10-17T03:18:18.544Z,101455.52
2022-10-17T03:20:46.957Z,101461.88
2022-10-17T03:23:15.634Z,101464.36
2022-10-17T03:25:43.286Z,101459.73
2022-10-17T03:28:12.600Z,101459.73
2022-10-17T03:30:40.470Z,101461.23
2022-10-17T03:33:08.334Z,101461.25
2022-10-17T03:35:40.197Z,101474.16
2022-10-17T03:38:08.319Z,101477.09
2022-10-17T03:40:36.003Z,101477.40
2022-10-17T03:43:04.976Z,101474.50
2022-10-17T03:45:33.317Z,101473.45
2022-10-17T03:48:01.158Z,101476.54
2022-10-17T03:50:28.873Z,101477.03
2022-10-17T03:52:56.810Z,101482.92
2022-10-17T03:55:24.478Z,101483.77
2022-10-17T03:57:52.255Z,101484.37
2022-10-17T04:00:20.883Z,101484.84
2022-10-17T04:02:54.249Z,101486.61
2022-10-17T04:05:21.924Z,101485.77
2022-10-17T04:07:49.697Z,101486.88
2022-10-17T04:10:18.388Z,101484.76
2022-10-17T04:12:46.142Z,101484.34
2022-10-17T04:15:14.734Z,101479.83
2022-10-17T04:17:42.442Z,101477.95
2022-10-17T04:20:10.650Z,101474.69
2022-10-17T04:22:38.646Z,101471.48
2022-10-17T04:25:06.824Z,101478.77
2022-10-17T04:27:37.066Z,101480.33
2022-10-17T04:30:05.630Z,101479.96
2022-10-17T04:32:38.629Z,101482.08
2022-10-17T04:35:13.826Z,101490.32
2022-10-17T04:37:45.079Z,101494.75
2022-10-17T04:40:18.315Z,101494.02
2022-10-17T04:42:46.801Z,101499.34
2022-10-17T04:45:17.046Z,101502.39
2022-10-17T04:47:45.857Z,101499.95
2022-10-17T04:50:13.562Z,101502.08
2022-10-17T04:52:41.488Z,101501.08
2022-10-17T04:55:09.925Z,101502.92
2022-10-17T04:57:37.618Z,101504.34
2022-10-17T05:00:14.764Z,101508.86
2022-10-17T05:02:53.466Z,101504.16
2022-10-17T05:05:21.270Z,101499.64
2022-10-17T05:07:51.072Z,101503.56
2022-10-17T05:10:20.811Z,101502.11
2022-10-17T05:12:50.665Z,101505.99
2022-10-17T05:15:19.355Z,101502.52
2022-10-17T05:17:47.371Z,101504.91
2022-10-17T05:20:15.194Z,101505.16
2022-10-17T05:22:42.817Z,101499.86
2022-10-17T05:25:11.836Z,101503.69
2022-10-17T05:27:39.652Z,101507.05
2022-10-17T05:30:08.858Z,101508.31
2022-10-17T05:32:37.166Z,101514.54
2022-10-17T05:35:05.971Z,101520.05
2022-10-17T05:37:34.231Z,101521.45
2022-10-17T05:40:04.150Z,101520.66
2022-10-17T05:42:32.810Z,101520.80
2022-10-17T05:45:00.985Z,101520.52
2022-10-17T05:47:29.114Z,101521.48
2022-10-17T05:49:57.162Z,101524.34
2022-10-17T05:52:30.118Z,101528.92
2022-10-17T05:55:24.386Z,101532.95
2022-10-17T05:57:53.917Z,101537.04
2022-10-17T06:00:22.639Z,101540.80
2022-10-17T06:02:56.446Z,101539.32
2022-10-17T06:05:25.361Z,101539.98
2022-10-17T06:07:57.005Z,101548.19
2022-10-17T06:10:28.243Z,101550.89
2022-10-17T06:12:57.578Z,101555.11
2022-10-17T06:15:25.436Z,101558.14
2022-10-17T06:18:02.131Z,101557.30
2022-10-17T06:20:30.251Z,101559.39
2022-10-17T06:22:58.074Z,101558.52
2022-10-17T06:25:46.678Z,101557.98
2022-10-17T06:28:14.648Z,101556.76
2022-10-17T06:30:42.461Z,101560.60
2022-10-17T06:33:10.218Z,101565.33
2022-10-17T06:35:37.994Z,101565.11
2022-10-17T06:38:06.342Z,101568.60
2022-10-17T06:40:34.503Z,101572.21
2022-10-17T06:43:02.538Z,101578.17
2022-10-17T06:45:49.108Z,101581.98
2022-10-17T06:48:22.000Z,101582.99
2022-10-17T06:51:18.879Z,101583.59
2022-10-17T06:53:54.469Z,101575.27
2022-10-17T06:56:30.014Z,101583.45
2022-10-17T06:59:10.781Z,101584.55
2022-10-17T07:01:43.265Z,101587.09
2022-10-17T07:04:14.791Z,101588.66
2022-10-17T07:06:42.508Z,101590.20
2022-10-17T07:09:22.985Z,101591.52
2022-10-17T07:11:51.363Z,101589.71
2022-10-17T07:14:19.798Z,101589.63
2022-10-17T07:16:48.032Z,101588.84
2022-10-17T07:19:26.975Z,101592.98
2022-10-17T07:21:54.994Z,101593.52
2022-10-17T07:24:23.199Z,101591.21
2022-10-17T07:27:04.064Z,101588.23
2022-10-17T07:29:31.938Z,101589.24
2022-10-17T07:32:12.266Z,101593.71
2022-10-17T07:34:40.136Z,101586.21
2022-10-17T07:37:10.595Z,101586.77
2022-10-17T07:39:39.997Z,101586.20
2022-10-17T07:42:08.100Z,101585.14
2022-10-17T07:44:36.493Z,101579.15
2022-10-17T07:47:04.663Z,101577.48
2022-10-17T07:49:32.353Z,101576.99
2022-10-17T07:51:59.998Z,101573.57
2022-10-17T07:54:27.802Z,101577.23
2022-10-17T07:56:55.675Z,101577.91
2022-10-17T07:59:24.275Z,101577.03
2022-10-17T08:01:55.508Z,101573.58
2022-10-17T08:04:23.795Z,101575.64
2022-10-17T08:06:56.382Z,101576.14
2022-10-17T08:09:28.457Z,101570.65
2022-10-17T08:11:56.110Z,101571.30
2022-10-17T08:14:23.828Z,101572.79
2022-10-17T08:16:54.518Z,101570.98
2022-10-17T08:19:22.195Z,101574.25
2022-10-17T08:21:50.339Z,101575.70
2022-10-17T08:24:18.350Z,101576.89
2022-10-17T08:26:48.277Z,101576.96
2022-10-17T08:29:17.322Z,101580.13
2022-10-17T08:31:47.842Z,101576.80
2022-10-17T08:34:16.893Z,101573.49
2022-10-17T08:36:44.584Z,101571.77
2022-10-17T08:39:12.326Z,101569.23
2022-10-17T08:42:14.186Z,101571.60
2022-10-17T08:45:16.965Z,101568.65
2022-10-17T08:47:50.978Z,101570.11
2022-10-17T08:50:42.538Z,101563.81
2022-10-17T08:53:29.419Z,101566.23
2022-10-17T08:55:59.771Z,101563.77
2022-10-17T08:58:35.290Z,101565.00
2022-10-17T09:01:32.338Z,101562.46
2022-10-17T09:04:18.671Z,101557.98
2022-10-17T09:07:22.393Z,101556.75
2022-10-17T09:10:02.919Z,101559.98
2022-10-17T09:13:10.760Z,101559.31
2022-10-17T09:15:57.967Z,101561.05
2022-10-17T09:18:44.398Z,101566.55
2022-10-17T09:21:26.652Z,101563.66
2022-10-17T09:24:09.560Z,101565.70
2022-10-17T09:26:46.639Z,101563.57
2022-10-17T09:29:23.699Z,101561.04
2022-10-17T09:32:02.495Z,101562.77
2022-10-17T09:34:32.661Z,101555.00
2022-10-17T09:37:02.277Z,101550.94
2022-10-17T09:39:33.177Z,101547.48
2022-10-17T09:42:03.127Z,101543.49
2022-10-17T09:44:42.577Z,101535.60
2022-10-17T09:47:34.657Z,101539.14
2022-10-17T09:50:02.584Z,101533.81
2022-10-17T09:52:36.323Z,101538.92
2022-10-17T09:55:21.523Z,101541.33
2022-10-17T09:58:03.801Z,101544.11
2022-10-17T10:00:42.378Z,101544.30
2022-10-17T10:03:12.807Z,101546.82
2022-10-17T10:05:42.262Z,101549.60
2022-10-17T10:08:18.869Z,101549.23
2022-10-17T10:10:46.669Z,101550.83
2022-10-17T10:13:14.247Z,101547.92
2022-10-17T10:15:48.197Z,101550.05
2022-10-17T10:18:25.030Z,101547.41
2022-10-17T10:21:07.024Z,101544.93
2022-10-17T10:23:40.163Z,101547.44
2022-10-17T10:26:27.623Z,101546.77
2022-10-17T10:29:02.718Z,101544.43
2022-10-17T10:31:38.564Z,101545.38
2022-10-17T10:34:22.518Z,101539.55
2022-10-17T10:37:04.548Z,101540.33
2022-10-17T10:39:43.085Z,101539.42
2022-10-17T10:42:25.596Z,101534.81
2022-10-17T10:45:01.181Z,101531.71
2022-10-17T10:47:32.427Z,101532.81
2022-10-17T10:50:45.575Z,101531.54
2022-10-17T10:53:38.825Z,101523.46
2022-10-17T10:56:12.066Z,101527.70
2022-10-17T10:59:04.600Z,101523.88
2022-10-17T11:01:58.194Z,101514.96
2022-10-17T11:04:44.580Z,101523.52
2022-10-17T11:08:20.361Z,101522.05
2022-10-17T11:11:00.323Z,101519.11
2022-10-17T11:13:40.822Z,101515.64
2022-10-17T11:16:20.170Z,101510.68
2022-10-17T11:19:03.197Z,101508.42
2022-10-17T11:21:47.253Z,101508.83
2022-10-17T11:24:27.988Z,101507.61
2022-10-17T11:27:07.187Z,101513.02
2022-10-17T11:29:39.517Z,101506.46
2022-10-17T11:32:43.815Z,101508.65
2022-10-17T11:35:38.907Z,101502.80
2022-10-17T11:38:21.198Z,101500.31
2022-10-17T11:40:54.018Z,101495.60
2022-10-17T11:43:42.998Z,101494.84
2022-10-17T11:46:28.222Z,101492.23
2022-10-17T11:49:20.639Z,101494.28
2022-10-17T11:52:01.678Z,101496.55
2022-10-17T11:54:46.052Z,101490.48
2022-10-17T11:57:50.374Z,101488.42
2022-10-17T12:01:24.558Z,101489.21
2022-10-17T12:04:20.159Z,101487.27
2022-10-17T12:07:11.489Z,101481.77
2022-10-17T12:09:57.227Z,101474.55
2022-10-17T12:12:31.188Z,101472.66
2022-10-17T12:15:11.645Z,101475.16
2022-10-17T12:17:44.474Z,101475.52
2022-10-17T12:20:23.357Z,101475.45
2022-10-17T12:23:05.988Z,101473.07
2022-10-17T12:28:24.846Z,101464.01
2022-10-17T12:31:02.123Z,101458.94
2022-10-17T12:33:50.847Z,101455.20
2022-10-17T12:36:18.556Z,101452.07
2022-10-17T12:39:13.513Z,101448.60
2022-10-17T12:41:42.240Z,101453.30
2022-10-17T12:44:12.835Z,101453.55
2022-10-17T12:47:18.584Z,101447.91
2022-10-17T12:49:54.333Z,101435.66
2022-10-17T12:52:35.126Z,101445.62
2022-10-17T12:55:18.059Z,101442.58
2022-10-17T12:58:03.136Z,101439.76
2022-10-17T13:01:18.907Z,101440.79
2022-10-17T13:03:47.523Z,101439.73
2022-10-17T13:06:29.769Z,101443.15
2022-10-17T13:09:17.010Z,101444.70
2022-10-17T13:11:45.041Z,101439.48
2022-10-17T13:14:16.767Z,101435.79
2022-10-17T13:16:58.409Z,101429.44
2022-10-17T13:19:40.040Z,101433.17
2022-10-17T13:22:25.337Z,101429.83
2022-10-17T13:25:07.349Z,101425.64
2022-10-17T13:27:36.402Z,101422.84
2022-10-17T13:30:29.339Z,101422.77
2022-10-17T13:33:01.911Z,101416.71
2022-10-17T13:38:32.444Z,101419.69
2022-10-17T13:41:30.181Z,101420.58
2022-10-17T13:43:51.319Z,101415.38
2022-10-17T13:46:39.338Z,101412.61
2022-10-17T13:49:32.349Z,101410.23
2022-10-17T13:52:04.601Z,101403.95
2022-10-17T13:54:41.537Z,101402.75
2022-10-17T13:57:29.406Z,101402.34
2022-10-17T14:00:19.962Z,101395.17
2022-10-17T14:02:48.449Z,101388.58
2022-10-17T14:05:23.334Z,101391.09
2022-10-17T14:08:11.498Z,101392.63
2022-10-17T14:10:43.385Z,101394.45
2022-10-17T14:13:34.021Z,101396.23
2022-10-17T14:16:04.116Z,101393.20
2022-10-17T14:18:36.866Z,101394.27
2022-10-17T14:24:35.046Z,101398.14
2022-10-17T14:27:03.052Z,101398.67
2022-10-17T14:29:50.141Z,101401.73
2022-10-17T14:32:19.642Z,101401.70
2022-10-17T14:34:57.489Z,101400.39
2022-10-17T14:37:47.720Z,101401.23
2022-10-17T14:40:20.441Z,101398.52
2022-10-17T14:42:48.338Z,101399.02
2022-10-17T14:45:27.050Z,101398.98
2022-10-17T14:48:01.907Z,101401.34
2022-10-17T14:50:32.803Z,101396.93
2022-10-17T14:53:05.731Z,101397.11
2022-10-17T14:55:36.416Z,101394.47
2022-10-17T14:58:27.950Z,101396.94
2022-10-17T15:00:57.257Z,101401.13
2022-10-17T15:03:25.762Z,101401.00
2022-10-17T15:05:55.250Z,101400.34
2022-10-17T15:08:24.399Z,101407.77
2022-10-17T15:10:52.662Z,101403.52
2022-10-17T15:13:29.475Z,101401.77
2022-10-17T15:15:58.126Z,101399.83
2022-10-17T15:18:25.954Z,101398.91
2022-10-17T15:21:04.544Z,101397.23
2022-10-17T15:23:42.349Z,101394.61
2022-10-17T15:26:20.206Z,101401.09
2022-10-17T15:28:49.685Z,101395.17
2022-10-17T15:31:21.402Z,101402.88
2022-10-17T15:33:50.631Z,101398.48
2022-10-17T15:36:27.994Z,101400.45
2022-10-17T15:39:00.665Z,101396.10
2022-10-17T15:41:31.022Z,101396.20
2022-10-17T15:44:00.122Z,101397.86
2022-10-17T15:46:32.583Z,101393.96
2022-10-17T15:49:11.752Z,101396.09
2022-10-17T15:51:40.061Z,101395.92
2022-10-17T15:54:07.891Z,101395.72
2022-10-17T15:56:39.750Z,101397.52
2022-10-17T15:59:17.818Z,101398.99
2022-10-17T16:01:45.870Z,101401.86
2022-10-17T16:04:15.454Z,101403.95
2022-10-17T16:06:43.455Z,101408.63
2022-10-17T16:09:11.342Z,101404.40
2022-10-17T16:11:42.668Z,101400.70
2022-10-17T16:14:18.162Z,101398.14
2022-10-17T16:16:46.538Z,101397.70
2022-10-17T16:19:14.375Z,101400.75
2022-10-17T16:21:42.098Z,101402.73
2022-10-17T16:24:12.136Z,101397.11
2022-10-17T16:26:40.247Z,101400.46
2022-10-17T16:29:09.952Z,101404.40
2022-10-17T16:31:43.472Z,101403.27
2022-10-17T16:34:14.197Z,101408.84
2022-10-17T16:36:42.648Z,101408.13
2022-10-17T16:39:10.830Z,101410.35
2022-10-17T16:41:39.434Z,101406.42
2022-10-17T16:44:14.411Z,101411.85
2022-10-17T16:46:42.188Z,101414.78
2022-10-17T16:49:10.052Z,101409.59
2022-10-17T16:51:37.699Z,101406.34
2022-10-17T16:54:05.421Z,101406.45
2022-10-17T16:56:33.534Z,101409.22
2022-10-17T16:59:02.175Z,101415.11
2022-10-17T17:01:29.933Z,101412.81
2022-10-17T17:03:58.225Z,101413.70
2022-10-17T17:06:29.319Z,101412.86
2022-10-17T17:08:57.611Z,101411.23
2022-10-17T17:11:28.139Z,101411.27
2022-10-17T17:13:57.905Z,101408.88
2022-10-17T17:16:27.427Z,101408.56
2022-10-17T17:19:06.862Z,101406.70
2022-10-17T17:21:35.277Z,101402.70
2022-10-17T17:24:04.646Z,101408.99
2022-10-17T17:26:36.288Z,101414.55
2022-10-17T17:29:04.134Z,101418.45
2022-10-17T17:31:34.925Z,101417.72
2022-10-17T17:34:03.310Z,101419.27
2022-10-17T17:36:35.438Z,101418.59
2022-10-17T17:39:08.623Z,101413.77
2022-10-17T17:41:37.279Z,101415.96
2022-10-17T17:44:05.447Z,101414.09
2022-10-17T17:46:33.358Z,101418.64
2022-10-17T17:49:01.102Z,101413.05
2022-10-17T17:51:29.447Z,101413.85
2022-10-17T17:53:57.792Z,101414.91
2022-10-17T17:56:28.654Z,101411.79
2022-10-17T17:59:01.148Z,101413.42
2022-10-17T18:01:37.924Z,101408.89
2022-10-17T18:04:08.765Z,101410.84
2022-10-17T18:06:38.260Z,101412.16
2022-10-17T18:09:07.799Z,101411.94
2022-10-17T18:11:37.378Z,101406.41
2022-10-17T18:14:11.071Z,101403.91
2022-10-17T18:16:39.148Z,101406.81
2022-10-17T18:19:10.974Z,101401.27
2022-10-17T18:21:38.699Z,101404.16
2022-10-17T18:24:07.826Z,101401.30
2022-10-17T18:26:35.975Z,101401.98
2022-10-17T18:29:04.106Z,101402.86
2022-10-17T18:31:37.755Z,101404.55
2022-10-17T18:34:05.753Z,101401.98
2022-10-17T18:36:35.039Z,101406.17
2022-10-17T18:39:03.815Z,101406.80
2022-10-17T18:41:32.969Z,101400.71
2022-10-17T18:44:00.922Z,101399.75
2022-10-17T18:46:40.969Z,101405.56
2022-10-17T18:49:12.564Z,101407.84
2022-10-17T18:51:41.915Z,101404.25
2022-10-17T18:54:21.536Z,101407.88
2022-10-17T18:56:52.103Z,101403.16
2022-10-17T18:59:21.581Z,101401.38
2022-10-17T19:01:49.788Z,101400.02
2022-10-17T19:04:17.942Z,101397.60
2022-10-17T19:06:45.741Z,101403.06
2022-10-17T19:09:14.478Z,101399.13
2022-10-17T19:11:43.107Z,101400.10
2022-10-17T19:14:13.449Z,101400.67
2022-10-17T19:16:46.329Z,101401.34
2022-10-17T19:19:17.997Z,101398.80
2022-10-17T19:21:46.019Z,101396.30
2022-10-17T19:24:21.638Z,101392.45
2022-10-17T19:26:53.339Z,101393.55
2022-10-17T19:29:25.615Z,101389.46
2022-10-17T19:34:27.809Z,101388.52
2022-10-17T19:36:55.931Z,101390.62
2022-10-17T19:39:25.053Z,101390.50
2022-10-17T19:41:52.961Z,101392.55
2022-10-17T19:44:20.707Z,101392.99
2022-10-17T19:46:49.198Z,101398.02
2022-10-17T19:49:18.130Z,101407.52
2022-10-17T19:51:46.435Z,101408.73
2022-10-17T19:54:18.144Z,101410.56
2022-10-17T19:56:46.490Z,101408.23
2022-10-17T19:59:16.103Z,101415.23
2022-10-17T20:01:45.122Z,101411.77
2022-10-17T20:04:13.742Z,101416.32
2022-10-17T20:06:41.973Z,101422.52
2022-10-17T20:09:15.630Z,101424.29
2022-10-17T20:11:45.081Z,101426.42
2022-10-17T20:14:12.793Z,101428.61
2022-10-17T20:16:40.515Z,101428.77
2022-10-17T20:19:12.030Z,101427.02
2022-10-17T20:21:39.865Z,101427.81
2022-10-17T20:24:11.280Z,101430.28
2022-10-17T20:26:40.105Z,101429.41
2022-10-17T20:29:19.000Z,101428.30
2022-10-17T20:31:48.263Z,101428.61
2022-10-17T20:34:18.210Z,101428.88
2022-10-17T20:36:46.506Z,101432.83
2022-10-17T20:39:17.045Z,101428.58
2022-10-17T20:41:45.654Z,101430.37
2022-10-17T20:44:13.536Z,101429.21
2022-10-17T20:46:48.708Z,101429.74
2022-10-17T20:49:28.261Z,101434.95
2022-10-17T20:51:55.961Z,101438.79
2022-10-17T20:54:24.488Z,101434.17
2022-10-17T20:56:52.253Z,101431.09
2022-10-17T20:59:20.922Z,101427.02
2022-10-17T21:01:48.734Z,101435.83
2022-10-17T21:04:43.948Z,101433.52
2022-10-17T21:07:04.619Z,101436.03
2022-10-17T21:09:32.512Z,101435.15
2022-10-17T21:14:36.287Z,101437.52
2022-10-17T21:17:05.465Z,101438.84
2022-10-17T21:19:33.651Z,101435.08
2022-10-17T21:22:01.613Z,101435.62
2022-10-17T21:24:30.386Z,101435.55
2022-10-17T21:26:58.844Z,101436.41
2022-10-17T21:29:26.742Z,101438.14
2022-10-17T21:31:54.392Z,101435.77
2022-10-17T21:34:26.204Z,101438.64
2022-10-17T21:36:53.905Z,101438.11
2022-10-17T21:39:24.137Z,101438.41
2022-10-17T21:41:53.381Z,101431.52
2022-10-17T21:44:25.486Z,101431.38
2022-10-17T21:46:55.151Z,101432.83
2022-10-17T21:49:24.904Z,101442.13
2022-10-17T21:51:53.372Z,101445.10
2022-10-17T21:54:25.764Z,101439.27
2022-10-17T21:56:53.393Z,101444.12
2022-10-17T21:59:21.181Z,101438.85
2022-10-17T22:01:49.015Z,101440.77
2022-10-17T22:04:19.266Z,101444.02
2022-10-17T22:06:51.048Z,101439.70
2022-10-17T22:09:24.959Z,101437.04
2022-10-17T22:11:56.403Z,101435.16
2022-10-17T22:14:27.386Z,101436.45
2022-10-17T22:16:55.390Z,101436.58
2022-10-17T22:19:26.764Z,101433.98
2022-10-17T22:21:55.311Z,101431.52
2022-10-17T22:24:23.840Z,101429.75
2022-10-17T22:26:52.332Z,101426.77
2022-10-17T22:29:20.729Z,101426.80
2022-10-17T22:31:48.679Z,101421.40
2022-10-17T22:34:17.913Z,101427.20
2022-10-17T22:36:47.598Z,101428.05
2022-10-17T22:39:15.870Z,101420.52
2022-10-17T22:41:43.920Z,101429.13
2022-10-17T22:44:11.712Z,101428.67
2022-10-17T22:46:39.401Z,101431.58
2022-10-17T22:49:07.112Z,101426.05
2022-10-17T22:51:34.819Z,101424.75
2022-10-17T22:54:02.503Z,101423.96
2022-10-17T22:56:30.225Z,101430.69
2022-10-17T22:58:57.974Z,101431.61
2022-10-17T23:01:26.113Z,101428.10
2022-10-17T23:03:53.976Z,101432.98
2022-10-17T23:06:22.133Z,101432.17
2022-10-17T23:08:50.247Z,101434.35
2022-10-17T23:11:18.458Z,101430.92
2022-10-17T23:13:46.229Z,101435.14
2022-10-17T23:16:13.860Z,101436.77
2022-10-17T23:18:41.629Z,101436.89
2022-10-17T23:21:09.327Z,101432.31
2022-10-17T23:23:37.454Z,101434.46
2022-10-17T23:26:13.339Z,101432.41
2022-10-17T23:28:42.388Z,101434.48
2022-10-17T23:31:18.771Z,101433.40
2022-10-17T23:33:49.147Z,101434.30
2022-10-17T23:36:19.977Z,101429.19
2022-10-17T23:38:48.719Z,101430.09
2022-10-17T23:41:16.939Z,101428.48
2022-10-17T23:43:44.812Z,101426.92
2022-10-17T23:46:13.170Z,101425.56
2022-10-17T23:48:40.996Z,101429.02
2022-10-17T23:51:10.521Z,101430.54
2022-10-17T23:53:39.313Z,101433.80
2022-10-17T23:56:09.984Z,101434.55
2022-10-17T23:58:39.155Z,101438.15
